createdAt,value
2023-07-20T00:00:48.489Z,100936.97
2023-07-20T00:03:20.528Z,100936.97
2023-07-20T00:05:48.922Z,100935.91
2023-07-20T00:08:17.383Z,100934.00
2023-07-20T00:10:45.366Z,100933.16
2023-07-20T00:13:13.331Z,100934.81
2023-07-20T00:15:42.135Z,100933.16
2023-07-20T00:18:10.190Z,100926.59
2023-07-20T00:20:39.644Z,100932.06
2023-07-20T00:23:07.654Z,100930.44
2023-07-20T00:25:36.430Z,100930.44
2023-07-20T00:28:04.401Z,100932.06
2023-07-20T00:30:32.440Z,100934.00
2023-07-20T00:33:00.783Z,100932.91
2023-07-20T00:35:28.982Z,100925.81
2023-07-20T00:37:58.367Z,100927.69
2023-07-20T00:40:26.337Z,100933.16
2023-07-20T00:42:54.301Z,100924.13
2023-07-20T00:45:23.254Z,100924.13
2023-07-20T00:47:51.279Z,100926.88
2023-07-20T00:50:19.339Z,100925.19
2023-07-20T00:52:47.279Z,100928.78
2023-07-20T00:55:16.907Z,100919.75
2023-07-20T00:57:46.169Z,100929.59
2023-07-20T01:00:14.725Z,100927.94
2023-07-20T01:02:42.764Z,100928.78
2023-07-20T01:05:11.123Z,100927.09
2023-07-20T01:07:40.712Z,100931.50
2023-07-20T01:10:11.065Z,100927.94
2023-07-20T01:12:43.882Z,100930.66
2023-07-20T01:15:13.222Z,100932.56
2023-07-20T01:17:41.172Z,100924.38
2023-07-20T01:20:09.928Z,100928.16
2023-07-20T01:22:54.269Z,100923.53
2023-07-20T01:25:32.421Z,100915.09
2023-07-20T01:28:36.510Z,100922.13
2023-07-20T01:31:17.449Z,100905.13
2023-07-20T01:33:45.413Z,100924.84
2023-07-20T01:36:13.676Z,100925.91
2023-07-20T01:38:41.683Z,100910.97
2023-07-20T01:41:09.644Z,100896.81
2023-07-20T01:43:37.654Z,100892.16
2023-07-20T01:46:06.156Z,100925.69
2023-07-20T01:48:35.603Z,100914.03
2023-07-20T01:51:03.601Z,100912.59
2023-07-20T01:53:31.599Z,100906.44
2023-07-20T01:55:59.862Z,100916.41
2023-07-20T01:58:27.855Z,100909.03
2023-07-20T02:00:55.861Z,100908.19
2023-07-20T02:03:25.083Z,100904.63
2023-07-20T02:05:54.792Z,100907.38
2023-07-20T02:08:22.736Z,100912.03
2023-07-20T02:10:50.748Z,100918.28
2023-07-20T02:13:18.714Z,100920.22
2023-07-20T02:15:48.472Z,100901.31
2023-07-20T02:18:16.601Z,100915.56
2023-07-20T02:20:44.591Z,100910.34
2023-07-20T02:23:14.110Z,100913.94
2023-07-20T02:25:42.943Z,100905.72
2023-07-20T02:28:10.963Z,100903.22
2023-07-20T02:30:40.390Z,100910.34
2023-07-20T02:33:08.986Z,100910.34
2023-07-20T02:35:37.234Z,100909.28
2023-07-20T02:38:05.435Z,100912.25
2023-07-20T02:40:34.784Z,100901.44
2023-07-20T02:43:02.748Z,100918.56
2023-07-20T02:45:31.341Z,100915.00
2023-07-20T02:47:59.381Z,100918.78
2023-07-20T02:50:27.387Z,100908.81
2023-07-20T02:52:55.394Z,100911.91
2023-07-20T02:55:23.529Z,100893.97
2023-07-20T02:57:53.215Z,100914.16
2023-07-20T03:00:22.364Z,100918.56
2023-07-20T03:02:50.401Z,100914.16
2023-07-20T03:05:18.964Z,100918.56
2023-07-20T03:07:47.268Z,100915.00
2023-07-20T03:10:15.326Z,100917.72
2023-07-20T03:12:43.307Z,100921.50
2023-07-20T03:15:12.982Z,100924.84
2023-07-20T03:17:41.239Z,100929.47
2023-07-20T03:20:11.445Z,100922.13
2023-07-20T03:22:39.505Z,100922.56
2023-07-20T03:25:08.215Z,100927.81
2023-07-20T03:27:36.562Z,100919.63
2023-07-20T03:30:04.859Z,100924.84
2023-07-20T03:32:34.270Z,100929.47
2023-07-20T03:35:02.417Z,100929.47
2023-07-20T03:37:30.688Z,100927.59
2023-07-20T03:39:58.651Z,100932.22
2023-07-20T03:42:26.653Z,100934.94
2023-07-20T03:44:54.702Z,100943.16
2023-07-20T03:47:23.276Z,100938.50
2023-07-20T03:49:52.703Z,100941.47
2023-07-20T03:52:20.589Z,100921.03
2023-07-20T03:54:48.536Z,100895.16
2023-07-20T03:57:16.765Z,100938.41
2023-07-20T03:59:47.124Z,100943.16
2023-07-20T04:02:15.172Z,100918.41
2023-07-20T04:04:43.488Z,100940.28
2023-07-20T04:07:13.133Z,100949.44
2023-07-20T04:09:41.628Z,100958.47
2023-07-20T04:12:10.193Z,100961.22
2023-07-20T04:14:38.357Z,100959.53
2023-07-20T04:17:06.819Z,100963.09
2023-07-20T04:19:34.806Z,100963.94
2023-07-20T04:22:03.482Z,100967.47
2023-07-20T04:24:32.846Z,100961.22
2023-07-20T04:27:01.119Z,100959.41
2023-07-20T04:29:29.127Z,100959.53
2023-07-20T04:31:57.047Z,100956.56
2023-07-20T04:34:25.090Z,100960.25
2023-07-20T04:36:53.299Z,100968.56
2023-07-20T04:39:31.014Z,100972.94
2023-07-20T04:42:01.522Z,100947.97
2023-07-20T04:44:29.523Z,100958.81
2023-07-20T04:46:57.928Z,100964.03
2023-07-20T04:49:26.039Z,100971.03
2023-07-20T04:51:53.992Z,100976.75
2023-07-20T04:54:21.904Z,100983.88
2023-07-20T04:56:51.695Z,100971.31
2023-07-20T04:59:21.153Z,100967.47
2023-07-20T05:01:49.185Z,100973.19
2023-07-20T05:04:18.974Z,100978.41
2023-07-20T05:06:47.622Z,100962.00
2023-07-20T05:09:15.614Z,100974.03
2023-07-20T05:11:43.600Z,100956.56
2023-07-20T05:14:11.569Z,100972.59
2023-07-20T05:16:41.480Z,100972.94
2023-07-20T05:19:09.453Z,100977.59
2023-07-20T05:21:37.447Z,100978.41
2023-07-20T05:24:06.093Z,100977.59
2023-07-20T05:26:34.748Z,100972.94
2023-07-20T05:29:02.776Z,100971.88
2023-07-20T05:31:31.769Z,100971.88
2023-07-20T05:34:01.322Z,100968.31
2023-07-20T05:36:29.658Z,100971.03
2023-07-20T05:38:57.612Z,100972.13
2023-07-20T05:41:26.377Z,100973.78
2023-07-20T05:43:54.312Z,100974.59
2023-07-20T05:46:22.528Z,100977.34
2023-07-20T05:48:50.827Z,100982.81
2023-07-20T05:51:20.201Z,100981.97
2023-07-20T05:53:48.250Z,100987.44
2023-07-20T05:56:16.544Z,100989.94
2023-07-20T05:58:44.543Z,100990.16
2023-07-20T06:01:12.536Z,100985.53
2023-07-20T06:03:40.524Z,100981.13
2023-07-20T06:06:10.402Z,100991.84
2023-07-20T06:08:39.813Z,100987.22
2023-07-20T06:11:07.849Z,100989.09
2023-07-20T06:13:35.778Z,100949.41
2023-07-20T06:16:04.824Z,100989.09
2023-07-20T06:18:33.070Z,101002.78
2023-07-20T06:21:01.066Z,100997.31
2023-07-20T06:23:29.058Z,100997.78
2023-07-20T06:25:58.719Z,101000.03
2023-07-20T06:28:26.700Z,100981.59
2023-07-20T06:30:54.665Z,101000.03
2023-07-20T06:33:23.340Z,101008.00
2023-07-20T06:35:51.625Z,100999.06
2023-07-20T06:40:50.428Z,100950.94
2023-07-20T06:45:53.857Z,100995.28
2023-07-20T06:48:21.862Z,101000.88
2023-07-20T06:50:49.875Z,101003.59
2023-07-20T06:53:18.960Z,101005.50
2023-07-20T06:58:16.000Z,100948.22
2023-07-20T07:00:45.969Z,101000.13
2023-07-20T07:03:13.985Z,101010.75
2023-07-20T07:05:42.077Z,101013.69
2023-07-20T07:08:10.238Z,101009.06
2023-07-20T07:10:38.410Z,101005.72
2023-07-20T07:13:06.472Z,100967.09
2023-07-20T07:15:34.526Z,101005.28
2023-07-20T07:18:04.513Z,101013.47
2023-07-20T07:20:32.557Z,101012.63
2023-07-20T07:23:00.505Z,101000.97
2023-07-20T07:25:29.565Z,101016.19
2023-07-20T07:27:57.786Z,101024.41
2023-07-20T07:30:25.906Z,101021.66
2023-07-20T07:32:54.001Z,101014.75
2023-07-20T07:35:23.581Z,101021.66
2023-07-20T07:38:05.265Z,101020.00
2023-07-20T07:40:39.761Z,101027.13
2023-07-20T07:43:07.752Z,101032.59
2023-07-20T07:45:37.805Z,101025.34
2023-07-20T07:48:06.483Z,101038.06
2023-07-20T07:50:35.943Z,101030.69
2023-07-20T07:53:04.181Z,101035.09
2023-07-20T07:55:32.157Z,101029.03
2023-07-20T07:58:00.198Z,101030.69
2023-07-20T08:00:28.382Z,101009.75
2023-07-20T08:02:56.561Z,101040.78
2023-07-20T08:05:24.730Z,101042.47
2023-07-20T08:07:54.481Z,101041.63
2023-07-20T08:10:22.445Z,101039.13
2023-07-20T08:12:50.418Z,101042.47
2023-07-20T08:15:18.498Z,101047.94
2023-07-20T08:17:46.970Z,101049.00
2023-07-20T08:20:15.285Z,101047.09
2023-07-20T08:22:43.263Z,101053.41
2023-07-20T08:25:12.630Z,101052.56
2023-07-20T08:27:42.077Z,101051.50
2023-07-20T08:30:13.271Z,101049.81
2023-07-20T08:32:41.754Z,101047.09
2023-07-20T08:35:10.565Z,101045.44
2023-07-20T08:37:38.789Z,101041.72
2023-07-20T08:40:09.957Z,101045.44
2023-07-20T08:42:39.425Z,101049.00
2023-07-20T08:45:10.865Z,101040.91
2023-07-20T08:47:38.955Z,101057.19
2023-07-20T08:50:09.498Z,101051.72
2023-07-20T08:52:37.601Z,101034.47
2023-07-20T08:55:06.332Z,101053.63
2023-07-20T08:57:35.409Z,101052.56
2023-07-20T09:00:09.127Z,101052.56
2023-07-20T09:02:38.159Z,101049.56
2023-07-20T09:05:06.951Z,101052.31
2023-07-20T09:07:35.253Z,101031.03
2023-07-20T09:10:06.953Z,101046.25
2023-07-20T09:12:36.459Z,101047.09
2023-07-20T09:15:08.907Z,101049.81
2023-07-20T09:17:37.730Z,101036.03
2023-07-20T09:20:09.314Z,101049.00
2023-07-20T09:22:37.378Z,101053.41
2023-07-20T09:25:05.746Z,101049.81
2023-07-20T09:27:44.506Z,101047.94
2023-07-20T09:30:19.019Z,101033.75
2023-07-20T09:50:54.329Z,101015.34
2023-07-20T09:53:22.421Z,101037.00
2023-07-20T09:55:51.367Z,101028.81
2023-07-20T09:58:19.512Z,101031.53
2023-07-20T10:03:22.370Z,101036.75
2023-07-20T10:05:53.791Z,101041.38
2023-07-20T10:10:52.673Z,101038.63
2023-07-20T10:13:22.243Z,101033.16
2023-07-20T10:15:53.107Z,101016.06
2023-07-20T10:18:25.575Z,101034.00
2023-07-20T10:23:24.802Z,101028.53
2023-07-20T10:25:53.203Z,101030.44
2023-07-20T10:28:21.163Z,101024.19
2023-07-20T10:30:49.166Z,101019.50
2023-07-20T10:33:18.780Z,101025.81
2023-07-20T10:35:56.172Z,100984.81
2023-07-20T10:38:41.958Z,101009.56
2023-07-20T10:41:20.846Z,101016.78
2023-07-20T10:43:49.346Z,101016.78
2023-07-20T10:46:17.774Z,101012.16
2023-07-20T10:49:06.173Z,101007.78
2023-07-20T10:51:41.351Z,101013.25
2023-07-20T10:54:10.708Z,101005.03
2023-07-20T10:56:39.100Z,100991.50
2023-07-20T10:59:19.890Z,100982.09
2023-07-20T11:01:48.672Z,101002.31
2023-07-20T11:04:19.623Z,100993.28
2023-07-20T11:06:47.927Z,100993.28
2023-07-20T11:09:16.569Z,100990.56
2023-07-20T11:11:45.321Z,101006.94
2023-07-20T11:14:23.475Z,100996.59
2023-07-20T11:16:52.417Z,100997.66
2023-07-20T11:22:03.185Z,101003.38
2023-07-20T11:24:32.873Z,100994.13
2023-07-20T11:27:02.313Z,101003.13
2023-07-20T11:29:33.901Z,100988.66
2023-07-20T11:32:03.396Z,100983.06
2023-07-20T11:34:35.486Z,100971.19
2023-07-20T11:39:34.682Z,100986.72
2023-07-20T11:42:02.738Z,100991.13
2023-07-20T11:44:31.561Z,100982.09
2023-07-20T11:47:04.800Z,100985.66
2023-07-20T11:49:36.933Z,100966.28
2023-07-20T11:52:05.600Z,100980.19
2023-07-20T11:54:33.610Z,100982.09
2023-07-20T11:57:03.347Z,100981.25
2023-07-20T11:59:32.612Z,100980.19
2023-07-20T12:02:01.291Z,100972.47
2023-07-20T12:04:30.038Z,100980.19
2023-07-20T12:07:00.154Z,100977.47
2023-07-20T12:09:41.788Z,100970.22
2023-07-20T12:12:14.296Z,100979.38
2023-07-20T12:14:42.493Z,100974.16
2023-07-20T12:17:10.867Z,100979.38
2023-07-20T12:19:40.545Z,100979.38
2023-07-20T12:22:10.364Z,100966.66
2023-07-20T12:24:38.337Z,100976.63
2023-07-20T12:27:07.057Z,100978.53
2023-07-20T12:29:37.615Z,100965.00
2023-07-20T12:32:07.305Z,100974.16
2023-07-20T12:34:35.272Z,100975.78
2023-07-20T12:37:06.025Z,100969.75
2023-07-20T12:39:35.381Z,100973.06
2023-07-20T12:42:03.340Z,100977.72
2023-07-20T12:44:31.317Z,100965.00
2023-07-20T12:46:59.344Z,100956.41
2023-07-20T12:49:27.292Z,100973.31
2023-07-20T12:51:55.224Z,100975.78
2023-07-20T12:54:23.275Z,100975.78
2023-07-20T12:59:23.696Z,100964.84
2023-07-20T13:01:51.742Z,100953.00
2023-07-20T13:04:19.761Z,100966.53
2023-07-20T13:06:47.927Z,100965.47
2023-07-20T13:09:15.880Z,100954.75
2023-07-20T13:11:44.270Z,100954.75
2023-07-20T13:14:13.777Z,100946.56
2023-07-20T13:16:42.632Z,100952.03
2023-07-20T13:19:10.611Z,100952.03
2023-07-20T13:21:38.612Z,100950.13
2023-07-20T13:24:07.768Z,100943.84
2023-07-20T13:26:36.773Z,100941.09
2023-07-20T13:29:04.946Z,100944.66
2023-07-20T13:31:35.432Z,100939.22
2023-07-20T13:34:04.308Z,100940.03
2023-07-20T13:36:32.680Z,100940.28
2023-07-20T13:39:00.910Z,100919.50
2023-07-20T13:41:30.176Z,100941.38
2023-07-20T13:43:58.745Z,100937.53
2023-07-20T13:48:59.358Z,100898.25
2023-07-20T13:51:28.487Z,100927.69
2023-07-20T13:53:56.979Z,100923.88
2023-07-20T13:56:25.624Z,100924.72
2023-07-20T13:58:53.624Z,100925.81
2023-07-20T14:03:55.699Z,100920.56
2023-07-20T14:06:28.476Z,100924.13
2023-07-20T14:08:58.424Z,100925.81
2023-07-20T14:13:59.505Z,100899.31
2023-07-20T14:16:27.652Z,100919.50
2023-07-20T14:18:56.923Z,100867.69
2023-07-20T14:21:26.661Z,100887.44
2023-07-20T14:23:55.141Z,100909.66
2023-07-20T14:26:23.717Z,100911.53
2023-07-20T14:28:51.920Z,100912.38
2023-07-20T14:31:21.011Z,100844.22
2023-07-20T14:33:49.299Z,100922.25
2023-07-20T14:38:48.190Z,100922.25
2023-07-20T14:41:16.167Z,100907.03
2023-07-20T14:43:44.180Z,100913.22
2023-07-20T14:46:12.124Z,100915.94
2023-07-20T14:48:40.107Z,100910.47
2023-07-20T14:51:08.074Z,100903.94
2023-07-20T14:53:36.983Z,100902.28
2023-07-20T14:56:08.843Z,100901.22
2023-07-20T14:58:36.784Z,100894.91
2023-07-20T15:01:05.367Z,100891.34
2023-07-20T15:03:33.783Z,100887.44
2023-07-20T15:06:01.944Z,100903.34
2023-07-20T15:08:30.236Z,100879.47
2023-07-20T15:10:59.508Z,100894.09
2023-07-20T15:13:28.940Z,100889.44
2023-07-20T15:15:56.916Z,100881.13
2023-07-20T15:18:34.264Z,100871.72
2023-07-20T15:21:12.971Z,100865.47
2023-07-20T15:23:40.970Z,100879.59
2023-07-20T15:26:09.166Z,100884.00
2023-07-20T15:28:38.500Z,100866.88
2023-07-20T15:31:07.043Z,100881.25
2023-07-20T15:33:35.013Z,100876.84
2023-07-20T15:36:03.002Z,100877.69
2023-07-20T15:38:30.996Z,100865.94
2023-07-20T15:41:01.834Z,100862.13
2023-07-20T15:43:29.842Z,100856.66
2023-07-20T15:46:06.652Z,100850.38
2023-07-20T15:48:36.899Z,100849.53
2023-07-20T15:51:05.057Z,100845.72
2023-07-20T15:53:32.985Z,100844.06
2023-07-20T15:56:02.541Z,100802.88
2023-07-20T15:58:31.049Z,100836.69
2023-07-20T16:00:59.180Z,100835.63
2023-07-20T16:03:37.839Z,100831.25
2023-07-20T16:06:06.778Z,100829.34
2023-07-20T16:08:34.840Z,100829.34
2023-07-20T16:11:04.386Z,100799.91
2023-07-20T16:13:32.610Z,100823.88
2023-07-20T16:16:00.874Z,100828.25
2023-07-20T16:18:30.292Z,100823.03
2023-07-20T16:20:59.710Z,100820.31
2023-07-20T16:23:27.770Z,100821.97
2023-07-20T16:25:56.015Z,100821.16
2023-07-20T16:28:24.334Z,100816.50
2023-07-20T16:30:52.359Z,100812.94
2023-07-20T16:33:20.392Z,100810.44
2023-07-20T16:35:49.801Z,100813.78
2023-07-20T16:38:18.243Z,100805.59
2023-07-20T16:44:05.614Z,100799.28
2023-07-20T16:48:55.275Z,100811.03
2023-07-20T16:51:25.118Z,100802.00
2023-07-20T16:53:53.349Z,100800.91
2023-07-20T16:56:21.552Z,100803.66
2023-07-20T16:58:49.547Z,100793.81
2023-07-20T17:01:17.906Z,100801.19
2023-07-20T17:03:46.014Z,100801.19
2023-07-20T17:06:14.170Z,100790.38
2023-07-20T17:08:43.492Z,100799.28
2023-07-20T17:11:11.484Z,100787.16
2023-07-20T17:13:40.893Z,100788.34
2023-07-20T17:16:09.003Z,100791.91
2023-07-20T17:18:37.019Z,100783.72
2023-07-20T17:21:06.855Z,100775.06
2023-07-20T17:31:09.247Z,100787.53
2023-07-20T17:33:37.352Z,100784.78
2023-07-20T17:41:09.018Z,100764.13
2023-07-20T17:43:37.169Z,100774.69
2023-07-20T17:48:36.434Z,100762.81
2023-07-20T17:51:04.602Z,100771.13
2023-07-20T17:53:32.634Z,100771.97
2023-07-20T17:56:02.827Z,100767.56
2023-07-20T17:58:32.192Z,100757.59
2023-07-20T18:01:00.759Z,100756.75
2023-07-20T18:03:28.957Z,100765.66
2023-07-20T18:05:57.528Z,100757.59
2023-07-20T18:08:26.619Z,100762.81
2023-07-20T18:10:54.724Z,100767.34
2023-07-20T18:13:22.722Z,100758.31
2023-07-20T18:15:56.568Z,100759.13
2023-07-20T18:18:24.761Z,100757.19
2023-07-20T18:20:53.669Z,100759.94
2023-07-20T18:23:21.870Z,100759.13
2023-07-20T18:25:50.087Z,100758.31
2023-07-20T18:28:18.151Z,100743.09
2023-07-20T18:30:46.461Z,100764.59
2023-07-20T18:33:15.851Z,100752.00
2023-07-20T18:35:44.087Z,100750.56
2023-07-20T18:38:14.189Z,100755.56
2023-07-20T18:40:42.199Z,100752.00
2023-07-20T18:43:10.172Z,100758.31
2023-07-20T18:45:38.415Z,100737.88
2023-07-20T18:48:06.621Z,100745.00
2023-07-20T18:50:36.058Z,100700.66
2023-07-20T18:53:05.509Z,100754.13
2023-07-20T18:55:36.427Z,100753.06
2023-07-20T18:58:04.844Z,100757.47
2023-07-20T19:00:33.647Z,100747.59
2023-07-20T19:03:01.724Z,100751.41
2023-07-20T19:05:29.984Z,100751.16
2023-07-20T19:08:01.232Z,100756.41
2023-07-20T19:11:54.875Z,100752.00
2023-07-20T19:13:19.754Z,100750.34
2023-07-20T19:15:52.997Z,100744.88
2023-07-20T19:18:21.731Z,100753.91
2023-07-20T19:20:49.704Z,100752.13
2023-07-20T19:23:19.103Z,100712.31
2023-07-20T19:25:47.365Z,100754.97
2023-07-20T19:28:15.303Z,100760.44
2023-07-20T19:30:43.247Z,100754.13
2023-07-20T19:33:11.423Z,100749.50
2023-07-20T19:35:39.523Z,100751.41
2023-07-20T19:38:07.493Z,100762.34
2023-07-20T19:40:36.876Z,100762.34
2023-07-20T19:43:05.395Z,100760.44
2023-07-20T19:45:33.661Z,100762.34
2023-07-20T19:48:04.968Z,100761.50
2023-07-20T19:50:33.340Z,100765.06
2023-07-20T19:53:03.394Z,100766.97
2023-07-20T19:55:33.773Z,100758.75
2023-07-20T19:58:03.950Z,100762.34
2023-07-20T20:05:36.421Z,100773.25
2023-07-20T20:08:05.689Z,100758.09
2023-07-20T20:11:17.272Z,100771.03
2023-07-20T20:13:23.790Z,100761.66
2023-07-20T20:15:52.059Z,100771.59
2023-07-20T20:18:21.899Z,100771.59
2023-07-20T20:20:49.880Z,100766.13
2023-07-20T20:23:19.369Z,100764.50
2023-07-20T20:25:48.156Z,100761.66
2023-07-20T20:28:17.719Z,100772.69
2023-07-20T20:30:50.048Z,100768.88
2023-07-20T20:33:20.567Z,100770.75
2023-07-20T20:35:52.435Z,100761.66
2023-07-20T20:38:20.440Z,100775.16
2023-07-20T20:40:48.464Z,100788.81
2023-07-20T20:43:16.466Z,100786.34
2023-07-20T20:45:46.113Z,100768.41
2023-07-20T20:48:14.082Z,100786.91
2023-07-20T20:50:44.725Z,100777.22
2023-07-20T20:53:13.578Z,100795.13
2023-07-20T20:55:41.923Z,100781.84
2023-07-20T20:58:10.227Z,100817.22
2023-07-20T21:00:38.339Z,100818.19
2023-07-20T21:03:07.854Z,100832.78
2023-07-20T21:05:38.140Z,100841.78
2023-07-20T21:08:06.556Z,100846.47
2023-07-20T21:10:34.630Z,100855.47
2023-07-20T21:13:05.024Z,100860.13
2023-07-20T21:15:33.069Z,100864.50
2023-07-20T21:18:01.115Z,100873.78
2023-07-20T21:20:30.711Z,100877.31
2023-07-20T21:22:59.272Z,100880.88
2023-07-20T21:25:27.261Z,100882.53
2023-07-20T21:27:55.580Z,100882.53
2023-07-20T21:30:28.028Z,100884.22
2023-07-20T21:32:57.059Z,100885.28
2023-07-20T21:35:25.071Z,100877.09
2023-07-20T21:37:54.762Z,100867.00
2023-07-20T21:40:22.773Z,100852.38
2023-07-20T21:42:52.097Z,100853.81
2023-07-20T21:45:20.288Z,100855.22
2023-07-20T21:47:49.107Z,100830.19
2023-07-20T21:50:17.429Z,100848.69
2023-07-20T21:52:45.381Z,100842.41
2023-07-20T21:55:18.125Z,100840.50
2023-07-20T21:57:46.368Z,100836.94
2023-07-20T22:00:15.767Z,100830.88
2023-07-20T22:02:43.978Z,100829.56
2023-07-20T22:05:12.119Z,100830.06
2023-07-20T22:07:40.976Z,100822.44
2023-07-20T22:10:09.613Z,100827.06
2023-07-20T22:12:38.982Z,100818.66
2023-07-20T22:15:10.952Z,100835.25
2023-07-20T22:17:39.334Z,100827.78
2023-07-20T22:20:09.766Z,100808.56
2023-07-20T22:22:37.796Z,100818.31
2023-07-20T22:25:06.465Z,100814.47
2023-07-20T22:27:34.832Z,100809.00
2023-07-20T22:30:04.175Z,100806.28
2023-07-20T22:32:32.180Z,100806.28
2023-07-20T22:35:00.226Z,100795.63
2023-07-20T22:37:28.505Z,100795.63
2023-07-20T22:39:56.552Z,100775.44
2023-07-20T22:42:24.525Z,100795.84
2023-07-20T22:44:53.616Z,100795.63
2023-07-20T22:47:23.257Z,100793.72
2023-07-20T22:49:51.361Z,100782.78
2023-07-20T22:52:19.784Z,100773.75
2023-07-20T22:54:47.797Z,100768.28
2023-07-20T22:57:16.073Z,100760.94
2023-07-20T22:59:44.049Z,100762.81
2023-07-20T23:02:12.378Z,100754.88
2023-07-20T23:04:41.862Z,100760.31
2023-07-20T23:07:10.287Z,100749.28
2023-07-20T23:09:39.611Z,100766.41
2023-07-20T23:12:08.000Z,100777.56
2023-07-20T23:14:35.902Z,100768.75
2023-07-20T23:17:05.815Z,100760.22
2023-07-20T23:19:34.844Z,100754.66
2023-07-20T23:22:04.985Z,100767.69
2023-07-20T23:24:33.106Z,100762.22
2023-07-20T23:27:01.507Z,100767.47
2023-07-20T23:29:30.491Z,100711.69
2023-07-20T23:31:58.492Z,100745.41
2023-07-20T23:34:26.467Z,100747.50
2023-07-20T23:36:55.641Z,100750.47
2023-07-20T23:39:25.002Z,100743.09
2023-07-20T23:41:53.036Z,100742.03
2023-07-20T23:44:20.994Z,100738.47
2023-07-20T23:46:49.220Z,100741.22
2023-07-20T23:49:17.284Z,100739.53
2023-07-20T23:51:45.228Z,100734.91
2023-07-20T23:54:15.292Z,100734.91
2023-07-20T23:56:44.941Z,100743.09
2023-07-20T23:59:14.250Z,100741.22
